Time;durP1;ratioP1;P1;durP2;ratioP2;P2;SDS_P1;SDS_P2;PMS_P1;PMS_P2;Temp;Humidity;BMP_temperature;BMP_pressure;BME280_temperature;BME280_humidity;BME280_pressure;Samples;Min_cycle;Max_cycle;Signal;HPM_P1;HPM_P2
2023/01/10 08:19:01;;;;;;;13.07;2.97;;;;;;;2.51;89.02;97093.84;2084607;28;20830;-56
2023/01/10 08:23:50;;;;;;;14.02;3.00;;;;;;;2.68;88.64;97095.47;2089934;28;21046;-56
2023/01/10 09:51:27;;;;;;;5.22;1.35;;;;;;;3.74;87.67;97191.91;2084814;28;20574;-57
2023/01/10 09:52:33;;;;;;;8.52;2.08;;;;;;;4.22;85.30;97196.63;2080185;28;20220;-58
2023/01/10 10:41:51;;;;;;;11.02;2.10;;;;;;;4.04;85.79;97193.34;2081097;28;20572;-56
2023/01/10 10:42:55;;;;;;;7.55;2.95;;;;;;;5.22;81.36;97199.72;2073079;28;20310;-56
2023/01/10 10:44:02;;;;;;;16.02;2.28;;;;;;;6.63;77.78;97192.13;2072618;28;20202;-56
2023/01/10 10:45:22;;;;;;;7.60;1.63;;;;;;;7.21;72.42;97196.97;2074950;28;20261;-56
2023/01/10 10:46:25;;;;;;;6.15;1.98;;;;;;;7.57;70.92;97178.78;2075834;28;20195;-56
2023/01/10 10:47:32;;;;;;;8.07;1.75;;;;;;;8.71;68.36;97195.81;2072439;28;20231;-56
2023/01/10 10:48:41;;;;;;;9.68;1.55;;;;;;;9.13;65.49;97192.88;2074168;28;20593;-57
2023/01/10 10:50:06;;;;;;;7.05;1.88;;;;;;;9.66;64.63;97194.69;2074571;28;20204;-57
2023/01/10 10:51:49;;;;;;;7.57;1.45;;;;;;;10.81;60.98;97189.03;2070809;28;20198;-57
2023/01/10 10:52:51;;;;;;;6.05;1.63;;;;;;;10.69;60.11;97190.34;2064661;28;20222;-57
2023/01/10 10:53:55;;;;;;;5.30;2.13;;;;;;;10.82;59.55;97193.38;2062715;28;20221;-57
2023/01/10 10:54:57;;;;;;;9.55;2.45;;;;;;;10.93;59.41;97183.38;2066411;28;20198;-57
2023/01/10 10:56:04;;;;;;;9.15;1.80;;;;;;;11.41;59.23;97188.50;2066628;28;20327;-57
2023/01/10 10:57:05;;;;;;;8.13;1.67;;;;;;;11.11;58.62;97171.34;2065142;28;20265;-57
2023/01/10 10:58:13;;;;;;;9.15;1.70;;;;;;;9.89;60.53;97185.25;2070060;28;20253;-57
2023/01/10 10:59:18;;;;;;;8.25;1.55;;;;;;;9.69;61.31;97191.13;2069497;28;20198;-57
2023/01/10 11:00:21;;;;;;;6.35;2.00;;;;;;;8.92;63.09;97194.34;2064564;28;20219;-57
2023/01/10 11:01:23;;;;;;;5.18;1.60;;;;;;;9.38;62.91;97189.50;2064218;28;20676;-57
2023/01/10 11:02:34;;;;;;;6.70;1.88;;;;;;;8.84;64.75;97178.94;2063914;28;20223;-56
2023/01/10 11:03:50;;;;;;;9.60;2.15;;;;;;;7.88;67.81;97176.28;2065657;28;20200;-57
2023/01/10 11:04:56;;;;;;;10.43;2.00;;;;;;;7.16;68.88;97168.47;2065127;28;20229;-57
2023/01/10 11:05:59;;;;;;;6.80;2.75;;;;;;;6.49;71.43;97176.84;2063840;28;20890;-57
2023/01/10 11:07:00;;;;;;;8.18;2.35;;;;;;;6.14;73.59;97180.97;2065248;28;20768;-57
2023/01/10 11:41:41;;;;;;;9.57;1.83;;;;;;;4.54;76.06;97192.81;2083058;28;20575;-58
2023/01/10 11:42:43;;;;;;;11.50;1.40;;;;;;;4.73;75.32;97188.28;2082310;28;20206;-58
2023/01/10 11:43:44;;;;;;;8.80;1.83;;;;;;;5.37;74.96;97190.81;2081943;28;20229;-59
2023/01/10 11:44:45;;;;;;;12.38;1.50;;;;;;;6.75;69.99;97178.88;2082441;28;20283;-58
2023/01/10 11:45:53;;;;;;;6.88;1.95;;;;;;;7.66;66.60;97184.63;2081966;28;20207;-58
2023/01/10 11:46:58;;;;;;;10.88;2.15;;;;;;;7.94;65.53;97170.94;2079983;28;20200;-58
2023/01/10 11:48:20;;;;;;;6.50;2.08;;;;;;;8.97;63.87;97182.03;2081169;28;20558;-58
2023/01/10 11:49:36;;;;;;;10.13;2.03;;;;;;;8.96;62.72;97167.31;2082777;28;20238;-58
2023/01/10 11:50:41;;;;;;;9.98;2.38;;;;;;;8.21;62.49;97167.66;2081259;28;20203;-58
2023/01/10 11:51:47;;;;;;;24.00;2.15;;;;;;;6.76;67.18;97177.16;2082205;28;20235;-58
2023/01/10 11:52:49;;;;;;;3.30;1.35;;;;;;;5.98;68.85;97186.44;2083339;28;20205;-58
2023/01/10 11:54:15;;;;;;;4.65;1.52;;;;;;;5.63;69.81;97187.84;2082085;28;20283;-58
2023/01/10 11:55:22;;;;;;;7.60;1.95;;;;;;;6.35;68.86;97190.09;2081814;28;20200;-58
2023/01/10 11:56:28;;;;;;;7.60;1.88;;;;;;;6.41;68.07;97189.09;2082151;28;20196;-58
2023/01/10 11:57:31;;;;;;;9.60;1.70;;;;;;;7.59;65.10;97188.28;2080352;28;20217;-58
2023/01/10 11:58:35;;;;;;;14.07;2.28;;;;;;;6.56;66.22;97187.94;2080996;28;20197;-58
2023/01/10 11:59:38;;;;;;;9.57;1.92;;;;;;;5.93;68.51;97185.63;2080431;28;20200;-58
2023/01/10 12:00:45;;;;;;;8.07;1.48;;;;;;;5.60;68.13;97195.66;2080960;28;20607;-58
2023/01/10 12:01:55;;;;;;;7.20;1.90;;;;;;;5.50;69.62;97182.00;2082504;28;20648;-58
2023/01/10 12:02:57;;;;;;;8.85;1.50;;;;;;;5.80;69.91;97194.47;2083070;28;20653;-58
2023/01/10 12:03:59;;;;;;;13.82;2.50;;;;;;;7.00;67.49;97187.00;2081608;28;20201;-58
2023/01/10 12:05:05;;;;;;;10.65;1.98;;;;;;;7.78;64.70;97177.44;2081037;28;20189;-58
2023/01/10 12:06:13;;;;;;;18.38;2.35;;;;;;;7.60;64.24;97186.53;2081275;28;20209;-58
2023/01/10 12:07:17;;;;;;;6.45;1.40;;;;;;;7.61;63.75;97181.28;2077690;28;20248;-58
2023/01/10 12:08:37;;;;;;;27.98;1.83;;;;;;;7.41;63.57;97186.13;2080038;28;20824;-58
2023/01/10 12:09:44;;;;;;;15.65;2.20;;;;;;;8.48;62.14;97192.09;2082662;28;20197;-58
2023/01/10 12:10:56;;;;;;;3.90;1.30;;;;;;;8.81;61.96;97185.09;2081684;28;20197;-58
2023/01/10 12:12:17;;;;;;;8.30;1.40;;;;;;;9.24;60.78;97172.56;2081402;28;20725;-58
2023/01/10 12:13:18;;;;;;;11.32;1.65;;;;;;;9.22;61.05;97165.66;2081561;28;20348;-58
2023/01/10 12:14:20;;;;;;;9.45;2.20;;;;;;;9.23;61.94;97165.63;2081537;28;20276;-58
2023/01/10 12:15:27;;;;;;;9.13;2.45;;;;;;;8.06;61.95;97171.53;2085609;28;20288;-58
2023/01/10 12:16:31;;;;;;;7.45;1.52;;;;;;;8.39;61.50;97168.91;2086096;28;20216;-58
2023/01/10 12:17:36;;;;;;;12.48;1.30;;;;;;;8.82;60.22;97165.09;2082980;28;20275;-58
2023/01/10 12:18:38;;;;;;;10.15;2.13;;;;;;;7.94;63.07;97157.09;2081618;28;20198;-58
2023/01/10 12:19:39;;;;;;;10.27;1.75;;;;;;;7.10;64.39;97166.91;2079530;28;20859;-58
2023/01/10 12:20:46;;;;;;;14.15;1.95;;;;;;;6.65;66.50;97154.00;2078635;28;20207;-58
2023/01/10 12:21:50;;;;;;;6.97;1.50;;;;;;;6.63;68.14;97166.19;2080643;28;20814;-59
2023/01/10 12:22:58;;;;;;;7.97;1.98;;;;;;;7.16;65.65;97158.09;2080115;28;20200;-58
2023/01/10 12:24:05;;;;;;;9.82;2.20;;;;;;;7.69;64.75;97162.91;2081051;28;20212;-58
2023/01/10 12:25:33;;;;;;;9.40;1.70;;;;;;;8.13;60.34;97162.66;2081192;28;20204;-58
2023/01/10 12:26:35;;;;;;;7.00;1.50;;;;;;;8.36;59.56;97149.03;2080994;28;20205;-58
2023/01/10 12:27:36;;;;;;;6.95;1.00;;;;;;;8.41;59.45;97159.31;2078162;28;20217;-58
2023/01/10 12:28:43;;;;;;;13.00;2.50;;;;;;;8.70;60.15;97163.72;2079792;28;20645;-58
2023/01/10 12:29:56;;;;;;;6.57;1.40;;;;;;;8.68;59.90;97164.66;2081584;28;20212;-58
2023/01/10 12:30:59;;;;;;;30.33;12.45;;;;;;;8.44;60.71;97154.00;2081870;28;20801;-56
2023/01/10 12:32:05;;;;;;;9.05;2.70;;;;;;;6.69;62.85;97169.50;2083108;28;20228;-58
2023/01/10 12:33:14;;;;;;;7.93;1.90;;;;;;;6.19;65.57;97156.63;2090296;28;20229;-57
2023/01/10 12:34:19;;;;;;;4.88;1.20;;;;;;;6.90;64.79;97156.94;2087934;28;20205;-58
2023/01/10 12:35:33;;;;;;;7.22;1.70;;;;;;;6.29;64.34;97166.84;2078504;28;20245;-58
2023/01/10 12:36:43;;;;;;;8.07;1.90;;;;;;;6.21;65.38;97156.63;2080463;28;20254;-58
2023/01/10 12:37:58;;;;;;;9.70;1.38;;;;;;;5.68;66.25;97128.16;2082372;28;20216;-58
2023/01/10 12:39:07;;;;;;;11.55;1.45;;;;;;;5.57;66.64;97156.84;2083178;28;20209;-58
2023/01/10 12:40:32;;;;;;;7.43;1.65;;;;;;;5.59;67.02;97152.50;2082669;28;20203;-58
2023/01/10 12:44:36;;;;;;;11.70;1.80;;;;;;;5.34;68.81;97147.69;2079550;28;20258;-58
2023/01/10 12:45:45;;;;;;;8.32;1.10;;;;;;;5.19;67.96;97135.88;2082063;28;20285;-58
2023/01/10 12:46:54;;;;;;;14.23;1.75;;;;;;;5.13;68.62;97142.84;2082245;28;20660;-58
2023/01/10 12:48:29;;;;;;;4.13;1.30;;;;;;;5.19;68.96;97137.59;2081963;28;20540;-58
2023/01/10 12:49:41;;;;;;;9.45;1.70;;;;;;;5.39;68.12;97147.63;2081712;28;20853;-58
2023/01/10 12:50:47;;;;;;;6.95;1.75;;;;;;;5.66;67.45;97146.34;2081875;28;20197;-58
2023/01/10 12:51:50;;;;;;;10.70;1.50;;;;;;;6.19;66.46;97135.03;2079629;28;20194;-58
2023/01/10 12:52:59;;;;;;;8.35;1.55;;;;;;;6.90;63.38;97146.56;2077315;28;20648;-58
2023/01/10 12:54:22;;;;;;;4.07;1.63;;;;;;;7.38;62.69;97145.47;2075807;28;20239;-58
2023/01/10 12:55:28;;;;;;;8.93;1.50;;;;;;;7.50;62.03;97145.19;2072870;28;20216;-58
2023/01/10 12:56:31;;;;;;;6.68;1.20;;;;;;;7.66;61.53;97130.03;2075081;28;20205;-58
2023/01/10 12:57:38;;;;;;;9.00;2.08;;;;;;;7.90;60.71;97140.72;2076006;28;20303;-58
2023/01/10 12:58:47;;;;;;;5.82;1.88;;;;;;;8.32;59.50;97140.44;2075990;28;20237;-58
2023/01/10 12:59:48;;;;;;;8.77;1.35;;;;;;;8.23;58.73;97130.31;2076569;28;20208;-57
2023/01/10 13:00:58;;;;;;;7.78;1.55;;;;;;;8.04;59.82;97127.34;2075522;28;20240;-58
2023/01/10 13:02:01;;;;;;;7.20;1.65;;;;;;;8.05;59.47;97123.84;2075473;28;20232;-58
2023/01/10 13:03:11;;;;;;;8.27;1.65;;;;;;;8.99;59.45;97128.16;2073068;28;20279;-58
2023/01/10 13:04:17;;;;;;;7.90;1.50;;;;;;;8.40;59.12;97123.78;2075619;28;20200;-58
2023/01/10 13:05:24;;;;;;;4.85;1.50;;;;;;;8.48;59.55;97130.50;2077348;28;20281;-58
2023/01/10 13:06:34;;;;;;;18.27;1.85;;;;;;;8.53;59.01;97129.50;2075497;28;20202;-58
2023/01/10 13:07:37;;;;;;;8.57;1.52;;;;;;;8.45;59.05;97132.31;2073648;28;20248;-58
2023/01/10 13:08:39;;;;;;;6.65;1.48;;;;;;;7.84;59.02;97125.28;2074700;28;20241;-58
2023/01/10 13:09:45;;;;;;;6.30;1.45;;;;;;;7.05;61.51;97126.31;2076530;28;20285;-58
2023/01/10 13:10:49;;;;;;;7.25;1.48;;;;;;;6.29;63.46;97127.94;2076728;28;20197;-58
2023/01/10 13:11:57;;;;;;;10.38;1.45;;;;;;;6.00;64.83;97137.97;2074732;28;20216;-58
2023/01/10 13:13:20;;;;;;;10.23;1.77;;;;;;;5.95;65.60;97144.09;2075782;28;20267;-58
2023/01/10 13:14:28;;;;;;;4.72;1.40;;;;;;;5.70;65.44;97132.44;2075512;28;20724;-58
2023/01/10 13:15:36;;;;;;;8.23;1.58;;;;;;;5.72;66.51;97140.19;2076496;28;20348;-58
2023/01/10 13:16:37;;;;;;;8.63;1.33;;;;;;;5.64;65.82;97140.31;2075601;28;20472;-58
2023/01/10 13:17:45;;;;;;;8.05;1.60;;;;;;;5.36;66.57;97135.59;2076755;28;20871;-58
2023/01/10 13:19:09;;;;;;;18.10;1.73;;;;;;;5.53;66.94;97131.88;2077132;28;20541;-58
2023/01/10 13:20:20;;;;;;;8.20;1.45;;;;;;;5.44;66.37;97132.03;2075600;28;20216;-58
2023/01/10 13:21:22;;;;;;;9.35;1.25;;;;;;;5.50;66.26;97124.16;2072727;28;20202;-58
2023/01/10 13:22:23;;;;;;;5.95;1.55;;;;;;;5.42;65.97;97124.25;2073533;28;21097;-58
2023/01/10 13:23:32;;;;;;;15.70;1.95;;;;;;;5.69;65.01;97124.69;2077728;28;20194;-58
2023/01/10 13:24:33;;;;;;;6.55;1.55;;;;;;;5.91;64.23;97127.75;2076196;28;20201;-58
2023/01/10 13:25:37;;;;;;;9.63;1.70;;;;;;;6.08;64.08;97134.38;2077071;28;20198;-58
2023/01/10 13:26:47;;;;;;;5.55;1.30;;;;;;;6.08;63.76;97130.06;2072430;28;20256;-57
2023/01/10 13:28:02;;;;;;;9.75;2.15;;;;;;;6.04;63.93;97136.19;2073965;28;20204;-58
2023/01/10 13:29:10;;;;;;;3.67;1.10;;;;;;;6.48;64.14;97131.88;2075694;28;20199;-58
2023/01/10 13:30:36;;;;;;;12.38;2.10;;;;;;;6.61;63.65;97127.25;2076246;28;20200;-58
2023/01/10 13:31:37;;;;;;;10.63;1.58;;;;;;;6.67;63.32;97126.31;2080210;28;20197;-58
2023/01/10 13:32:39;;;;;;;8.27;1.55;;;;;;;6.76;63.50;97130.44;2079431;28;20315;-57
2023/01/10 13:34:00;;;;;;;15.15;5.63;;;;;;;6.69;63.10;97124.50;2076006;28;20448;-56
2023/01/10 13:35:16;;;;;;;14.40;4.25;;;;;;;6.91;63.76;97124.03;2079981;28;20679;-57
2023/01/10 13:36:25;;;;;;;12.75;2.60;;;;;;;6.91;63.22;97124.03;2078669;28;20227;-57
2023/01/10 13:37:33;;;;;;;8.98;1.88;;;;;;;6.73;63.48;97131.38;2073865;28;20221;-57
2023/01/10 13:38:50;;;;;;;7.57;1.90;;;;;;;6.35;63.64;97130.41;2074911;28;20194;-57
2023/01/10 13:39:58;;;;;;;6.22;1.80;;;;;;;6.27;64.37;97124.50;2076826;28;20194;-57
2023/01/10 13:41:07;;;;;;;4.72;1.45;;;;;;;6.48;64.22;97113.69;2076156;28;20238;-57
2023/01/10 13:43:35;;;;;;;4.20;1.20;;;;;;;6.31;63.47;97128.75;2077790;28;20198;-57
2023/01/10 13:45:02;;;;;;;11.93;1.70;;;;;;;6.34;63.88;97121.75;2077967;28;20535;-58
2023/01/10 13:46:15;;;;;;;7.00;1.40;;;;;;;6.16;63.55;97128.19;2074192;28;20201;-57
2023/01/10 13:47:39;;;;;;;6.75;1.42;;;;;;;6.03;63.40;97131.88;2074670;28;20282;-57
2023/01/10 13:49:02;;;;;;;8.38;1.50;;;;;;;5.84;63.47;97124.44;2077280;28;20229;-57
2023/01/10 13:50:22;;;;;;;12.65;1.42;;;;;;;6.00;63.56;97134.53;2073321;28;20206;-57
2023/01/10 13:51:23;;;;;;;6.82;1.40;;;;;;;6.26;63.45;97135.78;2075886;28;20236;-57
2023/01/10 13:52:31;;;;;;;9.50;1.38;;;;;;;6.18;63.44;97115.19;2074401;28;20214;-57
2023/01/10 13:53:44;;;;;;;7.95;1.52;;;;;;;6.29;63.63;97130.53;2076489;28;20198;-57
2023/01/10 13:54:57;;;;;;;8.00;1.40;;;;;;;6.13;63.94;97127.38;2076044;28;20193;-57
2023/01/10 13:55:58;;;;;;;11.00;1.83;;;;;;;6.09;64.59;97131.75;2076996;28;20209;-57
2023/01/10 13:57:00;;;;;;;10.32;2.83;;;;;;;5.88;64.40;97126.06;2072030;28;20317;-56
2023/01/10 14:02:47;;;;;;;6.80;1.25;;;;;;;5.86;65.90;97127.81;2075084;28;20242;-57
2023/01/10 14:03:53;;;;;;;7.65;1.52;;;;;;;5.85;65.72;97133.03;2075154;28;20221;-57
2023/01/10 14:04:59;;;;;;;6.85;1.48;;;;;;;5.98;65.52;97125.88;2074927;28;20238;-58
2023/01/10 14:06:01;;;;;;;4.70;1.40;;;;;;;6.13;66.03;97130.84;2078688;28;20723;-57
2023/01/10 14:07:12;;;;;;;3.45;1.40;;;;;;;6.19;65.58;97133.28;2079420;28;20644;-57
2023/01/10 14:08:16;;;;;;;14.02;1.60;;;;;;;6.08;65.13;97140.41;2075179;28;20629;-57
2023/01/10 14:09:19;;;;;;;13.25;2.55;;;;;;;5.88;65.92;97140.78;2077022;28;20212;-57
2023/01/10 14:10:30;;;;;;;12.65;1.67;;;;;;;5.85;66.34;97140.81;2076699;28;20564;-57
2023/01/10 14:11:43;;;;;;;15.45;2.03;;;;;;;5.68;67.29;97147.16;2074721;28;20675;-58
2023/01/10 14:13:08;;;;;;;10.38;2.10;;;;;;;5.60;66.53;97143.84;2072850;28;20214;-57
2023/01/10 14:14:22;;;;;;;8.85;1.33;;;;;;;5.70;66.98;97141.94;2076068;28;20209;-57
2023/01/10 14:15:35;;;;;;;11.88;1.70;;;;;;;5.67;67.01;97148.03;2074722;28;20295;-57
2023/01/10 14:16:39;;;;;;;10.18;1.80;;;;;;;5.70;66.87;97134.16;2077364;28;20205;-57
2023/01/10 14:17:40;;;;;;;12.65;1.85;;;;;;;5.84;67.16;97145.16;2072614;28;20205;-58
2023/01/10 14:18:45;;;;;;;6.22;1.35;;;;;;;5.87;66.99;97149.44;2074491;28;20600;-57
2023/01/10 14:19:56;;;;;;;5.68;1.42;;;;;;;5.71;67.25;97143.66;2075547;28;20200;-57
2023/01/10 14:21:01;;;;;;;5.40;1.40;;;;;;;5.49;67.72;97145.75;2074220;28;20208;-57
2023/01/10 14:22:03;;;;;;;5.03;1.15;;;;;;;5.37;67.66;97144.22;2075775;28;20260;-57
2023/01/10 14:23:19;;;;;;;6.28;1.45;;;;;;;5.20;68.24;97134.97;2075281;28;20819;-57
2023/01/10 14:24:42;;;;;;;16.95;1.20;;;;;;;5.17;68.44;97136.78;2073068;28;20197;-57
2023/01/10 14:25:45;;;;;;;3.70;1.33;;;;;;;5.10;68.63;97136.00;2078465;28;20235;-57
2023/01/10 14:26:47;;;;;;;8.88;1.45;;;;;;;5.08;68.67;97145.53;2077854;28;20197;-57
2023/01/10 14:27:50;;;;;;;7.57;1.40;;;;;;;4.99;69.26;97149.09;2076451;28;20243;-57
2023/01/10 14:28:51;;;;;;;6.78;1.77;;;;;;;4.90;69.37;97154.41;2074330;28;20692;-57
2023/01/10 14:29:57;;;;;;;7.78;2.00;;;;;;;4.82;69.62;97148.47;2073758;28;20238;-57
2023/01/10 14:31:04;;;;;;;7.72;1.48;;;;;;;4.79;70.49;97141.63;2072942;28;20196;-57
2023/01/10 14:32:32;;;;;;;5.78;1.20;;;;;;;4.83;70.20;97139.84;2072900;28;20229;-57
2023/01/10 14:33:35;;;;;;;12.02;1.80;;;;;;;4.77;70.38;97143.38;2075220;28;20220;-57
2023/01/10 14:34:43;;;;;;;3.85;1.15;;;;;;;4.68;71.08;97144.34;2071791;28;20196;-57
